Time;durP1;ratioP1;P1;durP2;ratioP2;P2;SDS_P1;SDS_P2;PMS_P1;PMS_P2;Temp;Humidity;BMP_temperature;BMP_pressure;BME280_temperature;BME280_humidity;BME280_pressure;Samples;Min_cycle;Max_cycle;Signal;HPM_P1;HPM_P2
2022/11/27 00:01:21;;;;;;;52.10;17.08;;;;;;;5.13;92.73;101277.38;4922512;28;20101;-89
2022/11/27 00:03:48;;;;;;;47.40;16.35;;;;;;;5.19;93.15;101276.25;4960565;28;20070;-89
2022/11/27 00:06:18;;;;;;;56.08;15.82;;;;;;;5.19;93.22;101273.59;4970270;28;20062;-89
2022/11/27 00:08:45;;;;;;;59.83;16.55;;;;;;;5.15;92.95;101272.88;4949951;28;20074;-89
2022/11/27 00:11:18;;;;;;;40.03;14.63;;;;;;;5.13;93.03;101258.94;4957486;28;20155;-89
2022/11/27 00:13:45;;;;;;;37.38;14.70;;;;;;;5.22;92.89;101249.78;4968901;28;20051;-88
2022/11/27 00:16:12;;;;;;;39.35;14.65;;;;;;;5.20;92.89;101257.75;4941455;28;20134;-89
2022/11/27 00:18:39;;;;;;;41.03;14.77;;;;;;;5.22;92.33;101252.44;4944036;28;20110;-89
2022/11/27 00:21:10;;;;;;;36.92;14.95;;;;;;;5.24;92.16;101255.84;4992154;28;20057;-89
2022/11/27 00:23:37;;;;;;;63.53;16.75;;;;;;;5.25;92.25;101259.34;4965859;28;20048;-89
2022/11/27 00:26:05;;;;;;;52.10;14.98;;;;;;;5.22;92.69;101253.28;4966715;28;20050;-89
2022/11/27 00:28:32;;;;;;;37.50;15.43;;;;;;;5.26;92.64;101247.88;4956001;28;20049;-89
2022/11/27 00:31:05;;;;;;;38.92;14.45;;;;;;;5.15;93.33;101243.06;4970162;28;20035;-89
2022/11/27 00:33:32;;;;;;;36.50;13.88;;;;;;;5.12;94.08;101243.22;4947244;28;20043;-89
2022/11/27 00:36:03;;;;;;;55.88;14.57;;;;;;;5.14;93.24;101230.81;4957138;28;20148;-89
2022/11/27 00:38:30;;;;;;;26.73;11.88;;;;;;;5.22;93.41;101228.72;4986156;28;20058;-89
2022/11/27 00:41:09;;;;;;;38.63;13.27;;;;;;;5.13;93.98;101229.97;4961567;28;20517;-89
2022/11/27 00:43:37;;;;;;;29.58;13.65;;;;;;;5.12;94.11;101227.41;4952071;28;20501;-89
2022/11/27 00:46:14;;;;;;;37.90;12.70;;;;;;;5.07;94.08;101230.25;4968603;28;20050;-89
2022/11/27 00:48:42;;;;;;;44.53;13.85;;;;;;;5.11;93.68;101229.16;4973427;28;20042;-89
2022/11/27 00:51:12;;;;;;;26.08;12.73;;;;;;;5.09;93.78;101223.13;4962598;28;20049;-89
2022/11/27 00:53:39;;;;;;;30.10;13.73;;;;;;;5.09;93.47;101217.00;4945464;28;20089;-88
2022/11/27 00:56:06;;;;;;;40.13;13.10;;;;;;;5.05;93.57;101216.28;4959436;28;20046;-88
2022/11/27 00:58:33;;;;;;;45.17;14.02;;;;;;;5.04;93.37;101216.34;4956323;28;20485;-89
2022/11/27 01:01:04;;;;;;;30.50;11.90;;;;;;;5.01;93.59;101209.44;4989118;28;20093;-89
2022/11/27 01:03:31;;;;;;;31.33;11.75;;;;;;;5.03;93.03;101209.38;4969207;28;20513;-89
2022/11/27 01:06:03;;;;;;;23.80;11.02;;;;;;;4.98;92.77;101209.56;4938239;28;20727;-88
2022/11/27 01:08:30;;;;;;;26.65;11.98;;;;;;;5.08;92.90;101210.03;4983025;28;20043;-88
2022/11/27 01:10:57;;;;;;;26.08;12.23;;;;;;;5.05;93.01;101202.28;4987240;28;20046;-88
2022/11/27 01:13:26;;;;;;;22.58;12.43;;;;;;;5.04;92.91;101200.53;4964970;28;20459;-89
2022/11/27 01:16:02;;;;;;;25.58;11.77;;;;;;;4.92;92.22;101197.53;4967227;28;20130;-89
2022/11/27 01:18:29;;;;;;;27.70;13.13;;;;;;;5.04;91.97;101195.28;4973491;28;20054;-88
2022/11/27 01:20:56;;;;;;;23.40;11.23;;;;;;;4.98;92.32;101199.03;4953953;28;20069;-89
2022/11/27 01:23:23;;;;;;;25.27;11.75;;;;;;;4.93;91.99;101196.59;4987021;28;20046;-89
2022/11/27 01:25:52;;;;;;;23.95;11.93;;;;;;;4.91;92.13;101187.94;4970705;28;20042;-88
2022/11/27 01:28:21;;;;;;;29.42;12.05;;;;;;;4.83;91.88;101190.03;4969619;28;20093;-88
2022/11/27 01:30:48;;;;;;;28.65;12.68;;;;;;;4.88;91.82;101195.09;4963006;28;20051;-88
2022/11/27 01:33:15;;;;;;;34.85;12.00;;;;;;;4.85;91.63;101196.09;4972079;28;20490;-89
2022/11/27 01:35:42;;;;;;;25.40;11.73;;;;;;;4.86;91.35;101191.66;4971926;28;20057;-89
2022/11/27 01:38:09;;;;;;;18.27;10.57;;;;;;;4.89;91.54;101189.78;4961613;28;20057;-90
2022/11/27 01:40:35;;;;;;;18.92;10.70;;;;;;;4.84;91.17;101178.59;4962287;28;20053;-89
2022/11/27 01:43:02;;;;;;;19.15;9.93;;;;;;;4.82;91.57;101183.06;4962880;28;20061;-88
2022/11/27 01:45:29;;;;;;;24.77;11.68;;;;;;;4.75;91.71;101171.94;4966723;28;20042;-88
2022/11/27 01:47:58;;;;;;;24.55;10.98;;;;;;;4.73;90.71;101176.44;4953459;28;20097;-89
2022/11/27 01:50:36;;;;;;;26.40;11.60;;;;;;;4.67;90.91;101168.78;4952383;28;20039;-90
2022/11/27 01:53:14;;;;;;;22.70;9.88;;;;;;;4.69;90.40;101168.72;4950433;28;20428;-89
2022/11/27 01:55:50;;;;;;;24.23;10.90;;;;;;;4.57;90.82;101167.47;4973851;28;20042;-89
2022/11/27 01:58:20;;;;;;;22.70;10.27;;;;;;;4.69;90.66;101164.31;4934097;28;20540;-89
2022/11/27 02:00:46;;;;;;;28.45;11.23;;;;;;;4.64;91.09;101160.19;4952262;28;20552;-88
2022/11/27 02:03:14;;;;;;;19.48;10.88;;;;;;;4.62;90.54;101156.75;4959500;28;20042;-89
2022/11/27 02:05:41;;;;;;;38.47;11.45;;;;;;;4.73;90.58;101154.50;4966537;28;20046;-89
2022/11/27 02:08:11;;;;;;;28.20;11.40;;;;;;;4.65;90.54;101152.19;4966079;28;20133;-88
2022/11/27 02:10:46;;;;;;;40.08;11.63;;;;;;;4.64;89.57;101147.88;4974262;28;20050;-89
2022/11/27 02:13:21;;;;;;;18.63;10.40;;;;;;;4.68;89.83;101152.09;4972298;28;20084;-89
2022/11/27 02:16:13;;;;;;;20.73;10.73;;;;;;;4.64;90.35;101149.66;5001201;28;20403;-88
2022/11/27 02:19:02;;;;;;;21.40;10.68;;;;;;;4.66;90.68;101145.19;4981069;28;20120;-89
2022/11/27 02:21:55;;;;;;;20.73;11.05;;;;;;;4.64;90.37;101152.28;4971780;28;20046;-89
2022/11/27 02:24:47;;;;;;;28.48;11.52;;;;;;;4.55;89.29;101153.50;4954362;28;20137;-89
2022/11/27 02:27:38;;;;;;;22.98;11.27;;;;;;;4.62;89.52;101154.97;4958157;28;20105;-90
2022/11/27 02:30:05;;;;;;;39.70;11.48;;;;;;;4.56;89.31;101147.34;4950139;28;20128;-89
2022/11/27 02:32:39;;;;;;;22.35;11.52;;;;;;;4.49;89.29;101149.38;4979649;28;20402;-89
2022/11/27 02:35:15;;;;;;;25.77;11.55;;;;;;;4.47;89.87;101161.72;4976805;28;20074;-89
2022/11/27 02:37:45;;;;;;;23.27;11.30;;;;;;;4.56;89.72;101153.44;4940542;28;20038;-90
2022/11/27 02:40:35;;;;;;;40.80;12.20;;;;;;;4.49;88.65;101156.41;4941641;28;20054;-89
2022/11/27 02:43:08;;;;;;;19.73;11.30;;;;;;;4.49;88.75;101157.25;4942804;28;20082;-89
2022/11/27 02:45:40;;;;;;;23.83;11.07;;;;;;;4.49;89.17;101152.00;4954588;28;20043;-89
2022/11/27 02:48:08;;;;;;;23.97;11.30;;;;;;;4.62;89.17;101148.84;4971728;28;20428;-89
2022/11/27 02:50:37;;;;;;;24.20;11.05;;;;;;;4.45;89.07;101149.56;4973374;28;20045;-89
2022/11/27 02:53:08;;;;;;;25.83;11.45;;;;;;;4.53;88.82;101148.31;4959420;28;20101;-88
2022/11/27 02:55:37;;;;;;;22.35;11.25;;;;;;;4.49;89.01;101148.53;4957446;28;20054;-89
2022/11/27 02:58:08;;;;;;;24.83;11.52;;;;;;;4.50;88.82;101144.97;4964046;28;20054;-89
2022/11/27 03:00:36;;;;;;;20.88;12.07;;;;;;;4.54;88.34;101147.41;4947668;28;20490;-89
2022/11/27 03:03:05;;;;;;;19.52;11.23;;;;;;;4.49;88.86;101140.63;4957881;28;20054;-88
2022/11/27 03:05:35;;;;;;;22.65;11.48;;;;;;;4.49;89.25;101144.09;4968198;28;20050;-89
2022/11/27 03:08:08;;;;;;;25.58;12.25;;;;;;;4.43;88.38;101147.00;4974079;28;20108;-89
2022/11/27 03:10:56;;;;;;;23.08;10.55;;;;;;;4.42;88.70;101150.53;4968750;28;20046;-88
2022/11/27 03:13:23;;;;;;;28.02;12.82;;;;;;;4.37;89.41;101144.63;4966994;28;20066;-88
2022/11/27 03:16:03;;;;;;;22.40;11.52;;;;;;;4.35;88.83;101147.31;4985412;28;20074;-88
2022/11/27 03:18:40;;;;;;;23.83;11.63;;;;;;;4.29;88.49;101131.78;4972646;28;20409;-88
2022/11/27 03:21:16;;;;;;;24.05;11.32;;;;;;;4.28;88.88;101126.63;4977483;28;20376;-89
2022/11/27 03:23:42;;;;;;;50.80;12.80;;;;;;;4.32;88.83;101120.28;4962321;28;20047;-88
2022/11/27 03:26:09;;;;;;;21.13;11.27;;;;;;;4.34;88.96;101118.44;4959756;28;20066;-89
2022/11/27 03:28:36;;;;;;;25.50;11.43;;;;;;;4.30;89.56;101114.22;4992088;28;20054;-88
2022/11/27 03:31:02;;;;;;;29.23;11.60;;;;;;;4.32;88.99;101115.88;4966272;28;20042;-89
2022/11/27 03:33:29;;;;;;;46.83;12.70;;;;;;;4.35;88.63;101120.16;4966963;28;20049;-88
2022/11/27 03:35:56;;;;;;;22.05;10.85;;;;;;;4.29;89.16;101126.53;4970731;28;20077;-85
2022/11/27 03:38:23;;;;;;;24.20;10.25;;;;;;;4.27;89.19;101127.50;4959986;28;20105;-89
2022/11/27 03:41:02;;;;;;;34.58;11.13;;;;;;;4.23;88.57;101132.06;4970064;28;20042;-89
2022/11/27 03:43:32;;;;;;;28.42;10.85;;;;;;;4.29;88.46;101126.53;4984694;28;20038;-89
2022/11/27 03:46:01;;;;;;;29.08;11.13;;;;;;;4.26;88.95;101129.28;4950756;28;20042;-88
2022/11/27 03:48:37;;;;;;;24.67;11.18;;;;;;;4.26;88.72;101112.66;4954925;28;20125;-84
2022/11/27 03:51:12;;;;;;;54.88;12.00;;;;;;;4.17;88.68;101120.91;4986558;28;20084;-88
2022/11/27 03:53:59;;;;;;;31.30;11.57;;;;;;;4.01;88.43;101118.94;4971655;28;20478;-87
2022/11/27 03:56:39;;;;;;;22.17;10.95;;;;;;;3.97;88.07;101119.09;4973216;28;20104;-89
2022/11/27 03:59:14;;;;;;;25.50;11.15;;;;;;;4.01;88.21;101116.28;4973415;28;20486;-88
2022/11/27 04:01:41;;;;;;;28.15;10.68;;;;;;;4.07;89.20;101115.19;4968541;28;20039;-88
2022/11/27 04:04:08;;;;;;;29.48;11.52;;;;;;;4.09;89.08;101118.59;4970872;28;20145;-89
2022/11/27 04:06:35;;;;;;;24.40;11.13;;;;;;;4.01;90.29;101124.19;4958052;28;20050;-88
2022/11/27 04:09:02;;;;;;;19.52;9.98;;;;;;;4.06;87.17;101127.47;4955181;28;20412;-89
2022/11/27 04:11:29;;;;;;;14.95;9.27;;;;;;;4.02;84.96;101127.66;4975219;28;20046;-89
2022/11/27 04:13:57;;;;;;;22.65;9.63;;;;;;;3.97;84.59;101127.88;4985899;28;20409;-89
2022/11/27 04:16:24;;;;;;;20.50;10.30;;;;;;;3.92;84.03;101138.56;4951491;28;20046;-89
2022/11/27 04:18:51;;;;;;;15.68;9.05;;;;;;;3.90;83.42;101129.88;4968489;28;20042;-88
2022/11/27 04:21:18;;;;;;;17.90;10.27;;;;;;;3.79;83.65;101121.56;4971391;28;20046;-89
2022/11/27 04:23:44;;;;;;;17.20;9.90;;;;;;;3.82;84.63;101116.19;4970035;28;20042;-89
2022/11/27 04:26:11;;;;;;;17.33;9.95;;;;;;;3.76;84.49;101105.91;4963446;28;20410;-89
2022/11/27 04:28:38;;;;;;;21.02;9.93;;;;;;;3.82;83.76;101095.19;4955985;28;20204;-87
2022/11/27 04:31:05;;;;;;;19.75;10.30;;;;;;;3.75;84.45;101098.97;4959847;28;20062;-88
2022/11/27 04:33:32;;;;;;;23.50;11.07;;;;;;;3.73;84.42;101097.31;4970119;28;20045;-88
2022/11/27 04:35:58;;;;;;;23.73;10.63;;;;;;;3.76;84.64;101097.19;4961284;28;20100;-89
2022/11/27 04:38:25;;;;;;;17.95;9.32;;;;;;;3.73;84.74;101097.31;4971430;28;20042;-87
2022/11/27 04:40:52;;;;;;;27.23;10.77;;;;;;;3.78;84.68;101092.72;4956058;28;20862;-89
2022/11/27 04:43:19;;;;;;;18.90;9.15;;;;;;;3.76;84.90;101087.53;4950980;28;20049;-88
2022/11/27 04:45:46;;;;;;;19.00;10.38;;;;;;;3.73;85.34;101089.44;4985611;28;20050;-88
2022/11/27 04:48:12;;;;;;;19.70;10.10;;;;;;;3.76;85.27;101094.56;4974614;28;20045;-89
2022/11/27 04:50:39;;;;;;;19.85;10.32;;;;;;;3.76;85.43;101091.94;4943142;28;20414;-89
2022/11/27 04:53:06;;;;;;;18.88;10.20;;;;;;;3.68;85.98;101085.19;4962354;28;20156;-89
2022/11/27 04:55:34;;;;;;;20.73;10.45;;;;;;;3.66;85.25;101078.28;4958211;28;20096;-89
2022/11/27 04:58:00;;;;;;;23.58;10.27;;;;;;;3.70;84.63;101079.91;4969065;28;20048;-89
2022/11/27 05:00:27;;;;;;;20.60;10.27;;;;;;;3.74;85.21;101084.13;4959180;28;20077;-88
2022/11/27 05:02:54;;;;;;;18.63;8.80;;;;;;;3.66;85.49;101078.28;4985602;28;20126;-88
2022/11/27 05:05:21;;;;;;;21.40;10.38;;;;;;;3.65;85.91;101069.56;4957105;28;20141;-88
2022/11/27 05:07:47;;;;;;;20.60;9.93;;;;;;;3.65;85.42;101074.81;4964293;28;20125;-88
2022/11/27 05:10:14;;;;;;;19.00;9.85;;;;;;;3.73;85.82;101074.50;4964807;28;20095;-89
2022/11/27 05:12:41;;;;;;;24.35;11.32;;;;;;;3.67;85.84;101070.38;4954230;28;20046;-89
2022/11/27 05:15:08;;;;;;;19.83;10.80;;;;;;;3.72;86.09;101072.81;4979146;28;20061;-89
2022/11/27 05:17:35;;;;;;;22.38;10.57;;;;;;;3.65;85.90;101066.94;4967547;28;20046;-89
2022/11/27 05:20:02;;;;;;;18.77;9.82;;;;;;;3.70;85.82;101074.66;4972753;28;20057;-89
2022/11/27 05:22:29;;;;;;;29.95;11.05;;;;;;;3.55;85.45;101073.47;4954345;28;20040;-89
2022/11/27 05:24:55;;;;;;;26.92;11.63;;;;;;;3.58;85.97;101075.97;4970323;28;20050;-88
2022/11/27 05:27:22;;;;;;;26.02;11.20;;;;;;;3.60;86.23;101075.94;4964099;28;20038;-89
2022/11/27 05:29:49;;;;;;;18.50;9.45;;;;;;;3.62;85.72;101066.22;4960389;28;20052;-88
2022/11/27 05:32:16;;;;;;;18.92;9.60;;;;;;;3.67;86.19;101069.53;4957003;28;20049;-89
2022/11/27 05:34:43;;;;;;;17.92;10.30;;;;;;;3.64;86.31;101069.66;4935880;28;20046;-89
2022/11/27 05:37:11;;;;;;;19.33;10.80;;;;;;;3.65;86.43;101064.31;4952194;28;20401;-88
2022/11/27 05:39:44;;;;;;;23.73;10.48;;;;;;;3.56;86.65;101062.06;4955589;28;20127;-88
2022/11/27 05:42:11;;;;;;;19.02;10.25;;;;;;;3.55;85.93;101062.97;4958699;28;20405;-88
2022/11/27 05:44:38;;;;;;;24.95;10.55;;;;;;;3.54;86.34;101060.44;4974338;28;20047;-88
2022/11/27 05:47:05;;;;;;;25.38;9.98;;;;;;;3.59;86.37;101059.31;4956112;28;20049;-88
2022/11/27 05:49:32;;;;;;;17.88;9.77;;;;;;;3.64;85.99;101059.16;4963002;28;20046;-89
2022/11/27 05:51:59;;;;;;;19.75;10.18;;;;;;;3.58;85.84;101068.09;4981232;28;20042;-89
2022/11/27 05:54:25;;;;;;;22.00;10.05;;;;;;;3.57;85.96;101060.28;4951592;28;20046;-88
2022/11/27 05:56:52;;;;;;;16.77;9.27;;;;;;;3.61;85.92;101072.38;4971697;28;20050;-89
2022/11/27 05:59:19;;;;;;;31.40;11.20;;;;;;;3.59;85.59;101061.09;4971053;28;20065;-88
2022/11/27 06:01:48;;;;;;;19.83;9.60;;;;;;;3.59;85.75;101059.31;4971342;28;20657;-88
2022/11/27 06:04:15;;;;;;;18.40;10.35;;;;;;;3.61;85.50;101054.88;4984921;28;20045;-88
2022/11/27 06:06:42;;;;;;;21.38;10.15;;;;;;;3.60;85.46;101052.28;4982942;28;20489;-88
2022/11/27 06:09:08;;;;;;;19.92;9.63;;;;;;;3.56;85.27;101059.44;4971749;28;20081;-88
2022/11/27 06:11:39;;;;;;;17.13;8.52;;;;;;;3.51;85.04;101056.16;4986555;28;20046;-89
2022/11/27 06:14:10;;;;;;;21.65;9.82;;;;;;;3.42;85.11;101054.72;4969150;28;20061;-89
2022/11/27 06:16:36;;;;;;;16.98;8.93;;;;;;;3.50;85.28;101049.16;4942487;28;20057;-89
2022/11/27 06:19:03;;;;;;;16.92;9.23;;;;;;;3.39;85.12;101048.75;4955086;28;20121;-88
2022/11/27 06:21:30;;;;;;;17.45;9.27;;;;;;;3.41;85.16;101053.03;4931711;28;20050;-88
2022/11/27 06:23:57;;;;;;;15.63;9.13;;;;;;;3.44;85.40;101046.81;4953494;28;20058;-89
2022/11/27 06:26:28;;;;;;;15.85;8.80;;;;;;;3.44;84.96;101065.19;4948126;28;20047;-88
2022/11/27 06:28:56;;;;;;;16.55;9.35;;;;;;;3.42;84.73;101061.75;4908471;28;20054;-89
2022/11/27 06:31:29;;;;;;;15.68;9.02;;;;;;;3.35;85.05;101055.03;4917434;28;20042;-89
2022/11/27 06:33:56;;;;;;;17.92;10.25;;;;;;;3.31;85.58;101062.19;4924065;28;20040;-89
2022/11/27 06:36:35;;;;;;;15.65;8.65;;;;;;;3.44;85.62;101057.31;4918770;28;20125;-89
2022/11/27 06:39:03;;;;;;;20.35;9.90;;;;;;;3.45;85.89;101059.00;4906934;28;20105;-87
2022/11/27 06:41:30;;;;;;;17.80;9.55;;;;;;;3.41;86.37;101047.78;4934855;28;20051;-89
2022/11/27 06:43:58;;;;;;;20.95;10.60;;;;;;;3.43;86.33;101045.91;4945153;28;20047;-89
2022/11/27 06:46:26;;;;;;;18.70;10.23;;;;;;;3.35;85.54;101047.16;4922280;28;20402;-90
2022/11/27 06:48:53;;;;;;;19.25;9.55;;;;;;;3.46;85.35;101044.94;4952315;28;20406;-86
2022/11/27 06:51:25;;;;;;;18.65;9.35;;;;;;;3.34;84.08;101050.69;4951591;28;20074;-88
2022/11/27 06:53:52;;;;;;;17.77;10.60;;;;;;;3.35;84.81;101055.03;4996526;28;20038;-89
2022/11/27 06:56:22;;;;;;;18.58;9.50;;;;;;;3.33;84.62;101048.97;4956814;28;20047;-89
2022/11/27 06:58:51;;;;;;;19.75;10.02;;;;;;;3.30;84.97;101052.56;4968053;28;20037;-90
2022/11/27 07:01:18;;;;;;;16.48;9.50;;;;;;;3.28;85.92;101048.28;4987206;28;20576;-89
2022/11/27 07:03:47;;;;;;;19.85;10.32;;;;;;;3.25;85.54;101039.63;4947259;28;20050;-86
2022/11/27 07:06:20;;;;;;;15.30;8.52;;;;;;;3.34;86.02;101040.19;4968313;28;20053;-89
2022/11/27 07:08:47;;;;;;;17.08;9.25;;;;;;;3.24;86.18;101027.41;4985161;28;20047;-90
2022/11/27 07:11:17;;;;;;;16.83;9.32;;;;;;;3.36;86.20;101027.84;4987414;28;20054;-89
2022/11/27 07:13:45;;;;;;;17.92;9.25;;;;;;;3.40;86.47;101024.19;4985622;28;20508;-89
2022/11/27 07:16:12;;;;;;;18.50;9.25;;;;;;;3.33;86.35;101013.06;4969907;28;20047;-89
2022/11/27 07:18:41;;;;;;;21.48;10.05;;;;;;;3.26;86.19;101011.63;4999707;28;20047;-90
2022/11/27 07:21:09;;;;;;;19.88;11.02;;;;;;;3.29;86.18;101011.50;4981279;28;20059;-89
2022/11/27 07:23:36;;;;;;;19.00;10.55;;;;;;;3.28;85.81;101009.75;4950725;28;20558;-89
2022/11/27 07:26:07;;;;;;;19.33;10.48;;;;;;;3.25;85.73;101007.28;4966914;28;20047;-90
2022/11/27 07:28:34;;;;;;;25.13;12.80;;;;;;;3.24;86.11;101002.94;4969056;28;21397;-89
2022/11/27 07:31:01;;;;;;;33.80;15.95;;;;;;;3.35;86.62;101002.53;4969848;28;20042;-88
2022/11/27 07:33:28;;;;;;;29.75;14.98;;;;;;;3.37;86.29;100998.06;4985753;28;20058;-84
2022/11/27 07:36:05;;;;;;;25.23;13.23;;;;;;;3.41;86.36;101000.50;4968551;28;20438;-89
2022/11/27 07:38:32;;;;;;;25.10;12.13;;;;;;;3.41;86.68;100997.88;4961493;28;20435;-92
2022/11/27 07:41:03;;;;;;;24.35;11.88;;;;;;;3.35;86.59;100992.88;4972851;28;20050;-88
2022/11/27 07:43:30;;;;;;;27.45;11.00;;;;;;;3.40;87.09;100993.53;4992721;28;20061;-90
2022/11/27 07:45:57;;;;;;;24.83;11.90;;;;;;;3.43;86.66;100992.56;4994977;28;20042;-89
2022/11/27 07:48:24;;;;;;;27.35;12.77;;;;;;;3.37;86.96;100991.03;4950229;28;20413;-89
2022/11/27 07:50:51;;;;;;;22.63;11.98;;;;;;;3.43;87.24;100988.16;4971298;28;20508;-88
2022/11/27 07:53:18;;;;;;;24.95;11.40;;;;;;;3.36;88.00;100991.09;4955198;28;20053;-89
2022/11/27 07:55:44;;;;;;;15.30;9.43;;;;;;;3.47;87.29;100988.91;4985915;28;20046;-90
2022/11/27 07:58:11;;;;;;;25.63;10.10;;;;;;;3.44;86.94;100982.00;4954916;28;20065;-88
2022/11/27 08:00:38;;;;;;;16.88;9.27;;;;;;;3.41;87.22;100989.13;4987093;28;20133;-90
2022/11/27 08:03:05;;;;;;;19.88;9.80;;;;;;;3.41;86.82;100983.88;4966521;28;20117;-89
2022/11/27 08:05:37;;;;;;;19.27;8.60;;;;;;;3.35;87.20;100974.50;4965431;28;20053;-89
2022/11/27 08:08:03;;;;;;;18.90;10.02;;;;;;;3.38;87.33;100979.59;4967356;28;20058;-88
2022/11/27 08:10:34;;;;;;;20.83;9.65;;;;;;;3.35;87.37;100971.88;4970117;28;20502;-89
2022/11/27 08:13:00;;;;;;;30.05;12.52;;;;;;;3.34;87.15;100971.94;4972379;28;20050;-88
2022/11/27 08:15:27;;;;;;;31.92;12.20;;;;;;;3.32;87.40;100973.78;4972469;28;20057;-88
2022/11/27 08:17:54;;;;;;;23.83;10.85;;;;;;;3.41;87.38;100969.00;4971596;28;20050;-89
2022/11/27 08:20:21;;;;;;;22.70;10.35;;;;;;;3.43;87.21;100977.66;4975190;28;20057;-88
2022/11/27 08:22:47;;;;;;;35.88;12.18;;;;;;;3.36;87.54;100976.22;4971013;28;20486;-89
2022/11/27 08:25:14;;;;;;;31.75;13.23;;;;;;;3.39;87.84;100983.13;4978535;28;20567;-89
2022/11/27 08:27:41;;;;;;;37.33;17.50;;;;;;;3.38;87.76;100981.38;4966453;28;20072;-89
2022/11/27 08:30:09;;;;;;;44.75;18.58;;;;;;;3.30;87.83;100980.84;4961690;28;20042;-89
2022/11/27 08:32:40;;;;;;;31.88;12.70;;;;;;;3.31;88.11;100975.53;4969988;28;20156;-89
2022/11/27 08:35:07;;;;;;;22.13;9.90;;;;;;;3.29;87.78;100969.50;4938626;28;20057;-89
2022/11/27 08:37:34;;;;;;;36.15;11.23;;;;;;;3.40;88.17;100976.94;4956676;28;20038;-85
2022/11/27 08:40:01;;;;;;;33.75;11.23;;;;;;;3.44;88.31;100966.25;4983279;28;20041;-84
2022/11/27 08:42:28;;;;;;;26.40;12.35;;;;;;;3.42;87.84;100981.19;4967836;28;20047;-84
2022/11/27 08:44:54;;;;;;;28.35;10.73;;;;;;;3.51;87.63;100979.13;4963853;28;20046;-84
2022/11/27 08:47:21;;;;;;;25.88;11.43;;;;;;;3.47;87.46;100968.75;4957839;28;20071;-84
2022/11/27 08:49:48;;;;;;;19.95;10.15;;;;;;;3.54;88.04;100972.00;4949235;28;20081;-83
2022/11/27 08:52:14;;;;;;;22.92;10.52;;;;;;;3.55;87.52;100970.22;4935005;28;20042;-83
2022/11/27 08:54:41;;;;;;;22.02;10.35;;;;;;;3.53;87.47;100964.16;4971297;28;20575;-84
2022/11/27 08:57:08;;;;;;;28.02;15.13;;;;;;;3.51;86.96;100963.34;4969295;28;20046;-85
2022/11/27 08:59:35;;;;;;;20.38;9.73;;;;;;;3.47;85.77;100960.88;4987389;28;20049;-84
2022/11/27 09:02:02;;;;;;;15.77;9.75;;;;;;;3.60;86.26;100953.34;4945936;28;20066;-85
2022/11/27 09:04:29;;;;;;;22.42;10.13;;;;;;;3.62;87.38;100945.41;4955030;28;20046;-85
2022/11/27 09:06:55;;;;;;;18.15;10.10;;;;;;;3.65;87.59;100940.88;4973769;28;20100;-85
2022/11/27 09:09:24;;;;;;;18.13;10.35;;;;;;;3.68;86.88;100939.88;4950163;28;20053;-85
2022/11/27 09:11:53;;;;;;;19.92;10.43;;;;;;;3.67;86.68;100939.03;4968893;28;20129;-85
2022/11/27 09:14:19;;;;;;;21.50;11.35;;;;;;;3.69;86.68;100942.47;4954794;28;20456;-85
2022/11/27 09:16:46;;;;;;;21.13;11.63;;;;;;;3.62;86.81;100941.00;4973202;28;20054;-85
2022/11/27 09:19:13;;;;;;;21.33;11.80;;;;;;;3.79;86.81;100942.94;4969150;28;20049;-85
2022/11/27 09:21:40;;;;;;;23.30;12.45;;;;;;;3.82;87.06;100931.44;4963944;28;20079;-85
2022/11/27 09:24:08;;;;;;;28.02;13.68;;;;;;;3.92;87.48;100927.50;4957971;28;20544;-85
2022/11/27 09:26:34;;;;;;;29.90;14.15;;;;;;;3.97;88.30;100925.50;4984508;28;20058;-84
2022/11/27 09:29:01;;;;;;;23.73;12.48;;;;;;;4.08;88.29;100918.00;4966371;28;20054;-84
2022/11/27 09:31:28;;;;;;;24.35;13.55;;;;;;;4.15;88.56;100913.34;4957530;28;20065;-84
2022/11/27 09:33:56;;;;;;;24.88;12.85;;;;;;;4.23;88.03;100918.25;4966354;28;20101;-85
2022/11/27 09:36:24;;;;;;;26.98;13.48;;;;;;;4.24;87.56;100915.53;4982292;28;20053;-85
2022/11/27 09:38:51;;;;;;;21.73;11.68;;;;;;;4.29;87.50;100910.91;4968830;28;20445;-84
2022/11/27 09:41:43;;;;;;;23.67;12.55;;;;;;;4.22;87.91;100903.38;4973266;28;20042;-84
2022/11/27 09:44:15;;;;;;;28.63;13.80;;;;;;;4.26;87.95;100899.69;4963957;28;20490;-84
2022/11/27 09:46:43;;;;;;;23.10;12.85;;;;;;;4.24;87.57;100894.50;4973306;28;20072;-85
2022/11/27 09:49:18;;;;;;;23.65;11.30;;;;;;;4.14;87.49;100893.22;4959555;28;20038;-84
2022/11/27 09:52:09;;;;;;;23.75;11.40;;;;;;;4.14;87.88;100874.81;4952774;28;20038;-85
2022/11/27 09:54:41;;;;;;;25.50;12.07;;;;;;;4.22;88.38;100871.84;4958285;28;20062;-85
2022/11/27 09:57:16;;;;;;;23.20;11.00;;;;;;;4.24;88.42;100867.38;4950092;28;20417;-85
2022/11/27 09:59:47;;;;;;;22.10;11.38;;;;;;;4.30;88.54;100864.44;4983286;28;20437;-85
2022/11/27 10:02:17;;;;;;;23.25;11.00;;;;;;;4.33;88.43;100866.94;4970136;28;20617;-85
2022/11/27 10:04:44;;;;;;;23.25;10.77;;;;;;;4.37;88.07;100854.50;4939006;28;20046;-85
2022/11/27 10:08:15;;;;;;;21.05;11.60;;;;;;;4.32;89.31;100860.81;4935981;28;20577;-85
2022/11/27 10:10:57;;;;;;;22.48;11.23;;;;;;;4.35;89.44;100857.19;4910290;28;20047;-85
2022/11/27 10:13:53;;;;;;;17.35;10.27;;;;;;;4.45;88.99;100858.50;4962420;28;20056;-85
2022/11/27 10:16:30;;;;;;;21.50;11.27;;;;;;;4.49;89.02;100859.19;4907271;28;20077;-85
2022/11/27 10:19:05;;;;;;;19.73;9.95;;;;;;;4.53;89.75;100853.72;4960200;28;20043;-85
2022/11/27 10:21:45;;;;;;;22.38;10.95;;;;;;;4.57;89.68;100857.91;4976592;28;20050;-85
2022/11/27 10:24:56;;;;;;;21.50;10.93;;;;;;;4.61;89.72;100863.03;4969435;28;20041;-85
2022/11/27 10:27:31;;;;;;;20.38;10.98;;;;;;;4.65;89.30;100864.59;4938157;28;20039;-85
2022/11/27 10:30:00;;;;;;;19.58;10.98;;;;;;;4.69;89.37;100853.00;4953636;28;20062;-85
2022/11/27 10:32:29;;;;;;;16.13;9.20;;;;;;;4.73;89.10;100844.03;4967839;28;20367;-85
2022/11/27 10:35:18;;;;;;;20.67;10.65;;;;;;;4.77;89.30;100841.16;4950202;28;20121;-85
2022/11/27 10:37:49;;;;;;;19.45;10.43;;;;;;;4.82;89.53;100840.94;4966228;28;20047;-85
2022/11/27 10:41:11;;;;;;;20.13;9.90;;;;;;;4.76;89.77;100836.00;4979510;28;20050;-85
2022/11/27 10:44:20;;;;;;;18.50;10.80;;;;;;;4.91;89.21;100829.13;4914087;28;20046;-85
2022/11/27 10:46:47;;;;;;;19.23;11.05;;;;;;;4.93;89.10;100812.31;4995692;28;20042;-85
2022/11/27 10:49:14;;;;;;;19.30;10.32;;;;;;;4.97;89.13;100808.63;4978799;28;20047;-85
2022/11/27 10:51:41;;;;;;;23.98;11.13;;;;;;;5.04;89.08;100803.91;4958185;28;20477;-85
2022/11/27 10:54:18;;;;;;;18.88;9.48;;;;;;;5.09;89.51;100801.91;4955502;28;20050;-85
2022/11/27 10:56:55;;;;;;;20.05;11.27;;;;;;;5.10;89.23;100789.59;4971858;28;20058;-86
2022/11/27 10:59:26;;;;;;;20.90;11.40;;;;;;;5.16;88.76;100784.00;4977284;28;20054;-86
2022/11/27 11:02:02;;;;;;;20.92;10.18;;;;;;;5.21;88.87;100777.56;4941854;28;20042;-85
2022/11/27 11:04:30;;;;;;;18.63;10.65;;;;;;;5.25;89.04;100774.78;4970750;28;20046;-85
2022/11/27 11:07:23;;;;;;;20.70;10.95;;;;;;;5.24;89.16;100771.31;4993563;28;20038;-85
2022/11/27 11:09:50;;;;;;;17.42;9.15;;;;;;;5.32;89.33;100766.50;4974132;28;20431;-85
2022/11/27 11:12:20;;;;;;;21.05;10.60;;;;;;;5.37;89.12;100751.31;4949009;28;20051;-85
2022/11/27 11:14:58;;;;;;;18.48;10.55;;;;;;;5.39;89.29;100748.56;4967221;28;20098;-86
2022/11/27 11:17:36;;;;;;;18.88;9.65;;;;;;;5.44;89.18;100739.53;4957778;28;20053;-85
2022/11/27 11:20:31;;;;;;;25.73;10.77;;;;;;;5.42;89.81;100740.53;4971443;28;20413;-85
2022/11/27 11:22:58;;;;;;;18.25;10.13;;;;;;;5.55;89.12;100732.84;4897424;28;20047;-85
2022/11/27 11:25:25;;;;;;;17.52;9.40;;;;;;;5.59;88.98;100727.31;4935924;28;20125;-85
2022/11/27 11:27:52;;;;;;;15.75;9.38;;;;;;;5.63;88.92;100722.75;4943110;28;20057;-85
2022/11/27 11:30:27;;;;;;;16.58;9.50;;;;;;;5.65;88.42;100711.19;4970544;28;20046;-85
2022/11/27 11:33:01;;;;;;;19.42;8.52;;;;;;;5.71;88.36;100710.00;4971282;28;20058;-85
2022/11/27 11:35:31;;;;;;;24.23;9.35;;;;;;;5.81;88.28;100700.66;4966433;28;20046;-85